sensor_id;sensor_type;location;lat;lon;timestamp;P1;durP1;ratioP1;P2;durP2;ratioP2
62574;SDS011;70119;45.638;11.714;2023-08-20T00:00:16;10.32;;;7.80;;
62574;SDS011;70119;45.638;11.714;2023-08-20T00:02:43;8.93;;;7.50;;
62574;SDS011;70119;45.638;11.714;2023-08-20T00:05:11;8.98;;;7.63;;
62574;SDS011;70119;45.638;11.714;2023-08-20T00:07:38;8.98;;;7.53;;
62574;SDS011;70119;45.638;11.714;2023-08-20T00:10:05;9.10;;;7.72;;
62574;SDS011;70119;45.638;11.714;2023-08-20T00:12:31;10.20;;;7.93;;
62574;SDS011;70119;45.638;11.714;2023-08-20T00:14:58;9.40;;;7.80;;
62574;SDS011;70119;45.638;11.714;2023-08-20T00:17:34;10.00;;;8.13;;
62574;SDS011;70119;45.638;11.714;2023-08-20T00:20:02;8.73;;;7.40;;
62574;SDS011;70119;45.638;11.714;2023-08-20T00:22:34;8.48;;;7.05;;
62574;SDS011;70119;45.638;11.714;2023-08-20T00:25:02;8.82;;;7.70;;
62574;SDS011;70119;45.638;11.714;2023-08-20T00:27:30;8.63;;;7.68;;
62574;SDS011;70119;45.638;11.714;2023-08-20T00:29:56;9.65;;;7.88;;
62574;SDS011;70119;45.638;11.714;2023-08-20T00:32:22;10.20;;;7.97;;
62574;SDS011;70119;45.638;11.714;2023-08-20T00:34:48;9.38;;;7.93;;
62574;SDS011;70119;45.638;11.714;2023-08-20T00:37:14;9.43;;;7.88;;
62574;SDS011;70119;45.638;11.714;2023-08-20T00:39:40;8.68;;;7.72;;
62574;SDS011;70119;45.638;11.714;2023-08-20T00:42:06;9.20;;;7.63;;
62574;SDS011;70119;45.638;11.714;2023-08-20T00:44:33;9.63;;;7.80;;
62574;SDS011;70119;45.638;11.714;2023-08-20T00:46:59;9.27;;;8.10;;
62574;SDS011;70119;45.638;11.714;2023-08-20T00:49:30;9.03;;;7.80;;
62574;SDS011;70119;45.638;11.714;2023-08-20T00:51:57;9.88;;;8.18;;
62574;SDS011;70119;45.638;11.714;2023-08-20T00:54:24;9.25;;;7.95;;
62574;SDS011;70119;45.638;11.714;2023-08-20T00:56:51;10.35;;;7.80;;
62574;SDS011;70119;45.638;11.714;2023-08-20T00:59:17;8.98;;;7.78;;
62574;SDS011;70119;45.638;11.714;2023-08-20T01:01:43;8.98;;;7.65;;
62574;SDS011;70119;45.638;11.714;2023-08-20T01:04:09;9.60;;;7.68;;
62574;SDS011;70119;45.638;11.714;2023-08-20T01:06:46;8.80;;;7.47;;
62574;SDS011;70119;45.638;11.714;2023-08-20T01:10:21;8.50;;;7.30;;
62574;SDS011;70119;45.638;11.714;2023-08-20T01:12:29;8.98;;;7.60;;
62574;SDS011;70119;45.638;11.714;2023-08-20T01:14:56;9.93;;;7.57;;
62574;SDS011;70119;45.638;11.714;2023-08-20T01:17:22;8.15;;;7.30;;
62574;SDS011;70119;45.638;11.714;2023-08-20T01:19:48;9.55;;;7.75;;
62574;SDS011;70119;45.638;11.714;2023-08-20T01:27:59;8.83;;;7.40;;
62574;SDS011;70119;45.638;11.714;2023-08-20T01:30:47;9.05;;;7.05;;
62574;SDS011;70119;45.638;11.714;2023-08-20T01:33:14;8.82;;;6.75;;
62574;SDS011;70119;45.638;11.714;2023-08-20T01:35:40;9.18;;;7.30;;
62574;SDS011;70119;45.638;11.714;2023-08-20T01:38:06;8.80;;;7.75;;
62574;SDS011;70119;45.638;11.714;2023-08-20T01:40:32;8.48;;;7.43;;
62574;SDS011;70119;45.638;11.714;2023-08-20T01:42:59;7.40;;;6.57;;
62574;SDS011;70119;45.638;11.714;2023-08-20T01:45:25;7.97;;;7.07;;
62574;SDS011;70119;45.638;11.714;2023-08-20T01:47:51;7.95;;;7.03;;
62574;SDS011;70119;45.638;11.714;2023-08-20T01:50:17;8.40;;;7.05;;
62574;SDS011;70119;45.638;11.714;2023-08-20T01:52:44;8.38;;;6.90;;
62574;SDS011;70119;45.638;11.714;2023-08-20T01:55:10;8.43;;;7.53;;
62574;SDS011;70119;45.638;11.714;2023-08-20T01:57:36;8.35;;;7.30;;
62574;SDS011;70119;45.638;11.714;2023-08-20T02:00:03;7.93;;;7.00;;
62574;SDS011;70119;45.638;11.714;2023-08-20T02:02:30;8.75;;;7.60;;
62574;SDS011;70119;45.638;11.714;2023-08-20T02:04:57;9.02;;;7.55;;
62574;SDS011;70119;45.638;11.714;2023-08-20T02:07:23;8.77;;;7.35;;
62574;SDS011;70119;45.638;11.714;2023-08-20T02:09:48;9.02;;;7.60;;
62574;SDS011;70119;45.638;11.714;2023-08-20T02:12:14;8.63;;;7.22;;
62574;SDS011;70119;45.638;11.714;2023-08-20T02:14:40;8.68;;;7.78;;
62574;SDS011;70119;45.638;11.714;2023-08-20T02:17:06;9.55;;;7.80;;
62574;SDS011;70119;45.638;11.714;2023-08-20T02:19:32;9.10;;;7.57;;
62574;SDS011;70119;45.638;11.714;2023-08-20T02:21:58;8.52;;;7.63;;
62574;SDS011;70119;45.638;11.714;2023-08-20T02:24:24;8.70;;;7.72;;
62574;SDS011;70119;45.638;11.714;2023-08-20T02:26:50;9.27;;;7.50;;
62574;SDS011;70119;45.638;11.714;2023-08-20T02:29:16;9.07;;;7.35;;
62574;SDS011;70119;45.638;11.714;2023-08-20T02:31:41;8.25;;;7.05;;
62574;SDS011;70119;45.638;11.714;2023-08-20T02:34:07;9.23;;;7.60;;
62574;SDS011;70119;45.638;11.714;2023-08-20T02:36:33;8.70;;;7.63;;
62574;SDS011;70119;45.638;11.714;2023-08-20T02:38:59;8.23;;;7.35;;
62574;SDS011;70119;45.638;11.714;2023-08-20T02:41:25;10.40;;;7.25;;
62574;SDS011;70119;45.638;11.714;2023-08-20T02:43:51;8.52;;;7.20;;
62574;SDS011;70119;45.638;11.714;2023-08-20T02:46:16;9.10;;;7.40;;
62574;SDS011;70119;45.638;11.714;2023-08-20T02:48:42;9.05;;;7.38;;
62574;SDS011;70119;45.638;11.714;2023-08-20T02:51:08;9.55;;;7.53;;
62574;SDS011;70119;45.638;11.714;2023-08-20T02:53:34;8.85;;;7.57;;
62574;SDS011;70119;45.638;11.714;2023-08-20T02:56:00;8.90;;;7.03;;
62574;SDS011;70119;45.638;11.714;2023-08-20T02:58:25;9.25;;;7.50;;
62574;SDS011;70119;45.638;11.714;2023-08-20T03:00:51;9.20;;;7.43;;
62574;SDS011;70119;45.638;11.714;2023-08-20T03:03:18;9.77;;;7.18;;
62574;SDS011;70119;45.638;11.714;2023-08-20T03:05:44;8.57;;;7.45;;
62574;SDS011;70119;45.638;11.714;2023-08-20T03:08:09;8.40;;;7.25;;
62574;SDS011;70119;45.638;11.714;2023-08-20T03:10:35;8.82;;;7.35;;
62574;SDS011;70119;45.638;11.714;2023-08-20T03:13:01;7.78;;;6.72;;
62574;SDS011;70119;45.638;11.714;2023-08-20T03:15:28;7.90;;;7.00;;
62574;SDS011;70119;45.638;11.714;2023-08-20T03:17:54;8.02;;;6.47;;
62574;SDS011;70119;45.638;11.714;2023-08-20T03:20:20;9.48;;;7.22;;
62574;SDS011;70119;45.638;11.714;2023-08-20T03:22:46;8.82;;;6.95;;
62574;SDS011;70119;45.638;11.714;2023-08-20T03:25:12;9.32;;;7.55;;
62574;SDS011;70119;45.638;11.714;2023-08-20T03:27:38;8.75;;;7.85;;
62574;SDS011;70119;45.638;11.714;2023-08-20T03:30:04;10.02;;;7.90;;
62574;SDS011;70119;45.638;11.714;2023-08-20T03:32:30;8.73;;;7.78;;
62574;SDS011;70119;45.638;11.714;2023-08-20T03:34:57;8.00;;;7.20;;
62574;SDS011;70119;45.638;11.714;2023-08-20T03:37:24;9.30;;;7.55;;
62574;SDS011;70119;45.638;11.714;2023-08-20T03:39:51;9.32;;;7.72;;
62574;SDS011;70119;45.638;11.714;2023-08-20T03:42:17;9.23;;;7.90;;
62574;SDS011;70119;45.638;11.714;2023-08-20T03:44:43;8.52;;;7.45;;
62574;SDS011;70119;45.638;11.714;2023-08-20T03:47:09;8.80;;;7.60;;
62574;SDS011;70119;45.638;11.714;2023-08-20T03:49:35;8.52;;;7.30;;
62574;SDS011;70119;45.638;11.714;2023-08-20T03:52:01;9.18;;;7.80;;
62574;SDS011;70119;45.638;11.714;2023-08-20T03:54:27;10.25;;;8.02;;
62574;SDS011;70119;45.638;11.714;2023-08-20T03:56:54;9.30;;;7.85;;
62574;SDS011;70119;45.638;11.714;2023-08-20T03:59:20;9.25;;;7.68;;
62574;SDS011;70119;45.638;11.714;2023-08-20T04:01:46;8.90;;;7.30;;
62574;SDS011;70119;45.638;11.714;2023-08-20T04:04:13;9.52;;;7.80;;
62574;SDS011;70119;45.638;11.714;2023-08-20T04:06:38;9.43;;;7.85;;
62574;SDS011;70119;45.638;11.714;2023-08-20T04:09:04;9.45;;;7.88;;
62574;SDS011;70119;45.638;11.714;2023-08-20T04:11:31;9.65;;;7.60;;
62574;SDS011;70119;45.638;11.714;2023-08-20T04:13:57;8.50;;;7.60;;
62574;SDS011;70119;45.638;11.714;2023-08-20T04:16:23;9.65;;;7.57;;
62574;SDS011;70119;45.638;11.714;2023-08-20T04:18:49;8.85;;;7.50;;
62574;SDS011;70119;45.638;11.714;2023-08-20T04:21:15;9.18;;;7.60;;
62574;SDS011;70119;45.638;11.714;2023-08-20T04:23:41;9.63;;;8.00;;
62574;SDS011;70119;45.638;11.714;2023-08-20T04:26:07;9.60;;;7.95;;
62574;SDS011;70119;45.638;11.714;2023-08-20T04:28:33;8.75;;;7.50;;
62574;SDS011;70119;45.638;11.714;2023-08-20T04:30:59;8.43;;;7.20;;
62574;SDS011;70119;45.638;11.714;2023-08-20T04:33:25;8.05;;;6.65;;
62574;SDS011;70119;45.638;11.714;2023-08-20T04:35:51;8.18;;;6.53;;
62574;SDS011;70119;45.638;11.714;2023-08-20T04:38:18;8.27;;;6.80;;
62574;SDS011;70119;45.638;11.714;2023-08-20T04:40:47;8.65;;;6.78;;
62574;SDS011;70119;45.638;11.714;2023-08-20T04:43:14;8.65;;;6.88;;
62574;SDS011;70119;45.638;11.714;2023-08-20T04:45:40;8.23;;;7.03;;
62574;SDS011;70119;45.638;11.714;2023-08-20T04:48:07;8.60;;;6.82;;
62574;SDS011;70119;45.638;11.714;2023-08-20T04:50:33;8.15;;;6.72;;
62574;SDS011;70119;45.638;11.714;2023-08-20T04:52:59;8.65;;;7.07;;
62574;SDS011;70119;45.638;11.714;2023-08-20T04:55:26;9.50;;;6.95;;
62574;SDS011;70119;45.638;11.714;2023-08-20T04:57:52;8.32;;;6.95;;
62574;SDS011;70119;45.638;11.714;2023-08-20T05:00:18;9.30;;;7.43;;
62574;SDS011;70119;45.638;11.714;2023-08-20T05:02:44;9.55;;;7.10;;
62574;SDS011;70119;45.638;11.714;2023-08-20T05:05:11;9.25;;;6.97;;
62574;SDS011;70119;45.638;11.714;2023-08-20T05:07:37;8.65;;;7.30;;
62574;SDS011;70119;45.638;11.714;2023-08-20T05:10:03;8.30;;;7.40;;
62574;SDS011;70119;45.638;11.714;2023-08-20T05:12:29;8.90;;;7.57;;
62574;SDS011;70119;45.638;11.714;2023-08-20T05:14:55;10.27;;;7.78;;
62574;SDS011;70119;45.638;11.714;2023-08-20T05:17:21;8.48;;;7.35;;
62574;SDS011;70119;45.638;11.714;2023-08-20T05:19:47;8.70;;;7.43;;
62574;SDS011;70119;45.638;11.714;2023-08-20T05:22:13;7.65;;;6.53;;
62574;SDS011;70119;45.638;11.714;2023-08-20T05:24:39;8.40;;;7.28;;
62574;SDS011;70119;45.638;11.714;2023-08-20T05:27:08;8.38;;;7.20;;
62574;SDS011;70119;45.638;11.714;2023-08-20T05:29:39;7.93;;;6.97;;
62574;SDS011;70119;45.638;11.714;2023-08-20T05:32:07;9.15;;;7.45;;
62574;SDS011;70119;45.638;11.714;2023-08-20T05:34:33;8.65;;;7.72;;
62574;SDS011;70119;45.638;11.714;2023-08-20T05:37:00;10.07;;;8.18;;
62574;SDS011;70119;45.638;11.714;2023-08-20T05:39:26;9.55;;;7.60;;
62574;SDS011;70119;45.638;11.714;2023-08-20T05:41:55;8.85;;;7.85;;
62574;SDS011;70119;45.638;11.714;2023-08-20T05:44:21;9.70;;;7.60;;
62574;SDS011;70119;45.638;11.714;2023-08-20T05:46:47;8.85;;;7.80;;
62574;SDS011;70119;45.638;11.714;2023-08-20T05:49:13;9.15;;;7.60;;
62574;SDS011;70119;45.638;11.714;2023-08-20T05:51:41;8.90;;;7.40;;
62574;SDS011;70119;45.638;11.714;2023-08-20T05:54:09;10.10;;;8.07;;
62574;SDS011;70119;45.638;11.714;2023-08-20T05:56:49;9.00;;;7.40;;
62574;SDS011;70119;45.638;11.714;2023-08-20T05:59:28;8.57;;;7.63;;
62574;SDS011;70119;45.638;11.714;2023-08-20T06:01:54;8.68;;;7.40;;
62574;SDS011;70119;45.638;11.714;2023-08-20T06:04:20;8.38;;;7.40;;
62574;SDS011;70119;45.638;11.714;2023-08-20T06:06:47;9.10;;;7.80;;
62574;SDS011;70119;45.638;11.714;2023-08-20T06:09:14;8.45;;;7.28;;
62574;SDS011;70119;45.638;11.714;2023-08-20T06:11:40;8.50;;;7.30;;
62574;SDS011;70119;45.638;11.714;2023-08-20T06:14:06;8.75;;;7.00;;
62574;SDS011;70119;45.638;11.714;2023-08-20T06:16:32;8.20;;;6.82;;
62574;SDS011;70119;45.638;11.714;2023-08-20T06:18:58;8.25;;;7.30;;
62574;SDS011;70119;45.638;11.714;2023-08-20T06:21:24;8.48;;;7.30;;
62574;SDS011;70119;45.638;11.714;2023-08-20T06:23:50;9.23;;;7.40;;
62574;SDS011;70119;45.638;11.714;2023-08-20T06:26:15;7.50;;;6.65;;
62574;SDS011;70119;45.638;11.714;2023-08-20T06:28:41;8.75;;;7.20;;
62574;SDS011;70119;45.638;11.714;2023-08-20T06:31:07;8.40;;;7.13;;
62574;SDS011;70119;45.638;11.714;2023-08-20T06:33:33;8.05;;;7.03;;
62574;SDS011;70119;45.638;11.714;2023-08-20T06:35:59;8.32;;;7.13;;
62574;SDS011;70119;45.638;11.714;2023-08-20T06:38:24;8.02;;;7.20;;
62574;SDS011;70119;45.638;11.714;2023-08-20T06:40:50;8.68;;;7.05;;
62574;SDS011;70119;45.638;11.714;2023-08-20T06:43:16;8.05;;;6.90;;
62574;SDS011;70119;45.638;11.714;2023-08-20T06:45:42;9.25;;;7.28;;
62574;SDS011;70119;45.638;11.714;2023-08-20T06:48:08;8.32;;;6.70;;
62574;SDS011;70119;45.638;11.714;2023-08-20T06:50:34;8.63;;;6.90;;
62574;SDS011;70119;45.638;11.714;2023-08-20T06:52:59;8.77;;;7.03;;
62574;SDS011;70119;45.638;11.714;2023-08-20T06:55:25;8.68;;;6.97;;
62574;SDS011;70119;45.638;11.714;2023-08-20T06:57:51;9.05;;;6.80;;
62574;SDS011;70119;45.638;11.714;2023-08-20T07:00:17;11.18;;;7.22;;
62574;SDS011;70119;45.638;11.714;2023-08-20T07:02:44;9.15;;;7.35;;
62574;SDS011;70119;45.638;11.714;2023-08-20T07:05:10;9.43;;;7.03;;
62574;SDS011;70119;45.638;11.714;2023-08-20T07:07:40;9.50;;;7.10;;
62574;SDS011;70119;45.638;11.714;2023-08-20T07:10:07;8.25;;;6.82;;
62574;SDS011;70119;45.638;11.714;2023-08-20T07:12:33;9.02;;;7.03;;
62574;SDS011;70119;45.638;11.714;2023-08-20T07:14:59;9.88;;;7.20;;
62574;SDS011;70119;45.638;11.714;2023-08-20T07:17:25;8.63;;;7.07;;
62574;SDS011;70119;45.638;11.714;2023-08-20T07:19:51;9.32;;;7.05;;
62574;SDS011;70119;45.638;11.714;2023-08-20T07:22:17;8.73;;;6.63;;
62574;SDS011;70119;45.638;11.714;2023-08-20T07:24:42;10.63;;;7.22;;
62574;SDS011;70119;45.638;11.714;2023-08-20T07:27:08;9.63;;;6.93;;
62574;SDS011;70119;45.638;11.714;2023-08-20T07:29:37;10.82;;;7.20;;
62574;SDS011;70119;45.638;11.714;2023-08-20T07:32:03;11.77;;;7.30;;
62574;SDS011;70119;45.638;11.714;2023-08-20T07:34:29;10.60;;;7.55;;
62574;SDS011;70119;45.638;11.714;2023-08-20T07:36:56;10.70;;;7.30;;
62574;SDS011;70119;45.638;11.714;2023-08-20T07:39:22;9.93;;;7.35;;
62574;SDS011;70119;45.638;11.714;2023-08-20T07:41:48;9.68;;;7.05;;
62574;SDS011;70119;45.638;11.714;2023-08-20T07:44:13;9.98;;;7.60;;
62574;SDS011;70119;45.638;11.714;2023-08-20T07:46:39;10.30;;;7.22;;
62574;SDS011;70119;45.638;11.714;2023-08-20T07:49:05;10.88;;;7.72;;
62574;SDS011;70119;45.638;11.714;2023-08-20T07:51:31;11.65;;;7.47;;
62574;SDS011;70119;45.638;11.714;2023-08-20T07:53:57;10.07;;;7.47;;
62574;SDS011;70119;45.638;11.714;2023-08-20T07:56:24;13.05;;;7.93;;
62574;SDS011;70119;45.638;11.714;2023-08-20T07:58:50;13.45;;;7.47;;
62574;SDS011;70119;45.638;11.714;2023-08-20T08:01:16;11.13;;;7.60;;
62574;SDS011;70119;45.638;11.714;2023-08-20T08:03:42;9.38;;;7.18;;
62574;SDS011;70119;45.638;11.714;2023-08-20T08:06:07;10.27;;;7.13;;
62574;SDS011;70119;45.638;11.714;2023-08-20T08:08:33;9.88;;;6.90;;
62574;SDS011;70119;45.638;11.714;2023-08-20T08:10:59;10.02;;;7.28;;
62574;SDS011;70119;45.638;11.714;2023-08-20T08:13:25;9.48;;;7.07;;
62574;SDS011;70119;45.638;11.714;2023-08-20T08:15:51;10.40;;;7.32;;
62574;SDS011;70119;45.638;11.714;2023-08-20T08:18:18;10.05;;;7.22;;
62574;SDS011;70119;45.638;11.714;2023-08-20T08:20:44;9.38;;;7.38;;
62574;SDS011;70119;45.638;11.714;2023-08-20T08:23:10;9.88;;;6.93;;
62574;SDS011;70119;45.638;11.714;2023-08-20T08:25:36;9.60;;;7.60;;
62574;SDS011;70119;45.638;11.714;2023-08-20T08:28:02;9.27;;;7.28;;
62574;SDS011;70119;45.638;11.714;2023-08-20T08:30:29;8.40;;;7.18;;
62574;SDS011;70119;45.638;11.714;2023-08-20T08:32:55;9.95;;;6.95;;
62574;SDS011;70119;45.638;11.714;2023-08-20T08:35:21;8.38;;;6.90;;
62574;SDS011;70119;45.638;11.714;2023-08-20T08:37:47;9.05;;;6.95;;
62574;SDS011;70119;45.638;11.714;2023-08-20T08:40:12;8.90;;;7.00;;
62574;SDS011;70119;45.638;11.714;2023-08-20T08:42:38;8.80;;;6.88;;
62574;SDS011;70119;45.638;11.714;2023-08-20T08:45:07;11.70;;;6.93;;
62574;SDS011;70119;45.638;11.714;2023-08-20T08:47:34;9.68;;;7.30;;
62574;SDS011;70119;45.638;11.714;2023-08-20T08:50:01;8.77;;;6.65;;
62574;SDS011;70119;45.638;11.714;2023-08-20T08:52:27;10.38;;;7.10;;
62574;SDS011;70119;45.638;11.714;2023-08-20T08:54:54;9.40;;;7.35;;
62574;SDS011;70119;45.638;11.714;2023-08-20T08:57:20;8.93;;;7.05;;
62574;SDS011;70119;45.638;11.714;2023-08-20T08:59:46;11.75;;;7.30;;
62574;SDS011;70119;45.638;11.714;2023-08-20T09:02:12;10.55;;;7.15;;
62574;SDS011;70119;45.638;11.714;2023-08-20T09:04:39;9.50;;;7.60;;
62574;SDS011;70119;45.638;11.714;2023-08-20T09:07:05;11.02;;;7.70;;
62574;SDS011;70119;45.638;11.714;2023-08-20T09:09:37;10.30;;;7.63;;
62574;SDS011;70119;45.638;11.714;2023-08-20T09:12:14;10.73;;;7.25;;
62574;SDS011;70119;45.638;11.714;2023-08-20T09:14:48;10.90;;;7.72;;
62574;SDS011;70119;45.638;11.714;2023-08-20T09:17:16;9.57;;;7.40;;
62574;SDS011;70119;45.638;11.714;2023-08-20T09:19:44;11.63;;;7.55;;
62574;SDS011;70119;45.638;11.714;2023-08-20T09:22:13;11.23;;;7.30;;
62574;SDS011;70119;45.638;11.714;2023-08-20T09:24:46;10.57;;;7.32;;
62574;SDS011;70119;45.638;11.714;2023-08-20T09:27:17;12.30;;;8.10;;
62574;SDS011;70119;45.638;11.714;2023-08-20T09:29:50;11.18;;;7.60;;
62574;SDS011;70119;45.638;11.714;2023-08-20T09:32:21;17.23;;;9.30;;
62574;SDS011;70119;45.638;11.714;2023-08-20T09:34:49;14.20;;;8.63;;
62574;SDS011;70119;45.638;11.714;2023-08-20T09:37:17;18.15;;;9.43;;
62574;SDS011;70119;45.638;11.714;2023-08-20T09:39:44;14.95;;;8.88;;
62574;SDS011;70119;45.638;11.714;2023-08-20T09:42:11;15.10;;;9.25;;
62574;SDS011;70119;45.638;11.714;2023-08-20T09:44:38;17.38;;;8.90;;
62574;SDS011;70119;45.638;11.714;2023-08-20T09:47:12;13.77;;;9.18;;
62574;SDS011;70119;45.638;11.714;2023-08-20T09:49:40;14.82;;;9.07;;
62574;SDS011;70119;45.638;11.714;2023-08-20T09:52:15;17.92;;;9.32;;
62574;SDS011;70119;45.638;11.714;2023-08-20T09:55:00;18.38;;;9.18;;
62574;SDS011;70119;45.638;11.714;2023-08-20T09:57:34;15.65;;;9.27;;
62574;SDS011;70119;45.638;11.714;2023-08-20T10:00:02;15.93;;;8.70;;
62574;SDS011;70119;45.638;11.714;2023-08-20T10:02:35;13.73;;;8.55;;
62574;SDS011;70119;45.638;11.714;2023-08-20T10:05:02;11.57;;;8.18;;
62574;SDS011;70119;45.638;11.714;2023-08-20T10:07:31;14.07;;;8.98;;
62574;SDS011;70119;45.638;11.714;2023-08-20T10:10:00;15.43;;;8.82;;
62574;SDS011;70119;45.638;11.714;2023-08-20T10:12:28;15.50;;;8.63;;
62574;SDS011;70119;45.638;11.714;2023-08-20T10:14:55;12.02;;;8.07;;
62574;SDS011;70119;45.638;11.714;2023-08-20T10:17:22;13.30;;;8.30;;
62574;SDS011;70119;45.638;11.714;2023-08-20T10:19:54;14.07;;;8.32;;
62574;SDS011;70119;45.638;11.714;2023-08-20T10:22:28;12.20;;;8.20;;
62574;SDS011;70119;45.638;11.714;2023-08-20T10:25:07;12.60;;;7.88;;
62574;SDS011;70119;45.638;11.714;2023-08-20T10:27:36;13.00;;;7.90;;
62574;SDS011;70119;45.638;11.714;2023-08-20T10:30:25;13.15;;;8.48;;
62574;SDS011;70119;45.638;11.714;2023-08-20T10:32:51;13.65;;;8.18;;
62574;SDS011;70119;45.638;11.714;2023-08-20T10:35:22;11.65;;;7.50;;
62574;SDS011;70119;45.638;11.714;2023-08-20T10:38:05;11.85;;;7.93;;
62574;SDS011;70119;45.638;11.714;2023-08-20T10:43:26;12.73;;;7.53;;
62574;SDS011;70119;45.638;11.714;2023-08-20T10:46:07;10.90;;;7.85;;
62574;SDS011;70119;45.638;11.714;2023-08-20T10:59:28;11.30;;;7.70;;
62574;SDS011;70119;45.638;11.714;2023-08-20T11:01:58;10.48;;;7.60;;
62574;SDS011;70119;45.638;11.714;2023-08-20T11:04:27;10.13;;;7.13;;
62574;SDS011;70119;45.638;11.714;2023-08-20T11:06:55;12.23;;;7.55;;
62574;SDS011;70119;45.638;11.714;2023-08-20T11:09:22;11.13;;;7.47;;
62574;SDS011;70119;45.638;11.714;2023-08-20T11:11:50;12.07;;;7.53;;
62574;SDS011;70119;45.638;11.714;2023-08-20T11:14:17;11.35;;;7.25;;
62574;SDS011;70119;45.638;11.714;2023-08-20T11:16:44;11.88;;;7.20;;
62574;SDS011;70119;45.638;11.714;2023-08-20T11:19:11;11.77;;;7.75;;
62574;SDS011;70119;45.638;11.714;2023-08-20T11:21:37;11.15;;;7.22;;
62574;SDS011;70119;45.638;11.714;2023-08-20T11:24:05;9.82;;;6.88;;
62574;SDS011;70119;45.638;11.714;2023-08-20T11:26:40;9.50;;;6.72;;
62574;SDS011;70119;45.638;11.714;2023-08-20T11:29:07;10.93;;;7.00;;
62574;SDS011;70119;45.638;11.714;2023-08-20T11:31:37;11.32;;;7.25;;
62574;SDS011;70119;45.638;11.714;2023-08-20T11:34:03;10.93;;;7.30;;
62574;SDS011;70119;45.638;11.714;2023-08-20T11:36:30;8.63;;;6.53;;
62574;SDS011;70119;45.638;11.714;2023-08-20T11:38:56;10.07;;;6.85;;
62574;SDS011;70119;45.638;11.714;2023-08-20T11:41:22;9.38;;;7.15;;
62574;SDS011;70119;45.638;11.714;2023-08-20T11:43:50;10.40;;;6.90;;
62574;SDS011;70119;45.638;11.714;2023-08-20T11:46:18;10.38;;;6.53;;
62574;SDS011;70119;45.638;11.714;2023-08-20T11:49:04;9.85;;;7.00;;
62574;SDS011;70119;45.638;11.714;2023-08-20T11:51:37;10.05;;;6.70;;
62574;SDS011;70119;45.638;11.714;2023-08-20T11:54:07;9.68;;;6.82;;
62574;SDS011;70119;45.638;11.714;2023-08-20T11:56:42;9.55;;;6.57;;
62574;SDS011;70119;45.638;11.714;2023-08-20T11:59:18;9.70;;;6.90;;
62574;SDS011;70119;45.638;11.714;2023-08-20T12:01:58;11.23;;;6.85;;
62574;SDS011;70119;45.638;11.714;2023-08-20T12:04:28;10.57;;;7.03;;
62574;SDS011;70119;45.638;11.714;2023-08-20T12:07:01;9.32;;;6.40;;
62574;SDS011;70119;45.638;11.714;2023-08-20T12:09:34;10.45;;;6.63;;
62574;SDS011;70119;45.638;11.714;2023-08-20T12:12:00;8.70;;;6.32;;
62574;SDS011;70119;45.638;11.714;2023-08-20T12:14:27;8.93;;;6.60;;
62574;SDS011;70119;45.638;11.714;2023-08-20T12:16:54;11.65;;;6.55;;
62574;SDS011;70119;45.638;11.714;2023-08-20T12:19:20;9.18;;;6.63;;
62574;SDS011;70119;45.638;11.714;2023-08-20T12:21:46;8.50;;;6.50;;
62574;SDS011;70119;45.638;11.714;2023-08-20T12:24:12;11.38;;;6.50;;
62574;SDS011;70119;45.638;11.714;2023-08-20T12:26:39;9.75;;;6.50;;
62574;SDS011;70119;45.638;11.714;2023-08-20T12:29:05;9.68;;;6.35;;
62574;SDS011;70119;45.638;11.714;2023-08-20T12:31:31;7.50;;;6.00;;
62574;SDS011;70119;45.638;11.714;2023-08-20T12:33:58;9.30;;;6.55;;
62574;SDS011;70119;45.638;11.714;2023-08-20T12:36:24;8.85;;;5.88;;
62574;SDS011;70119;45.638;11.714;2023-08-20T12:38:50;9.05;;;6.70;;
62574;SDS011;70119;45.638;11.714;2023-08-20T12:41:16;9.95;;;6.63;;
62574;SDS011;70119;45.638;11.714;2023-08-20T12:43:42;7.97;;;6.13;;
62574;SDS011;70119;45.638;11.714;2023-08-20T12:46:08;9.35;;;6.32;;
62574;SDS011;70119;45.638;11.714;2023-08-20T12:48:33;8.48;;;6.20;;
62574;SDS011;70119;45.638;11.714;2023-08-20T12:50:59;8.10;;;6.22;;
62574;SDS011;70119;45.638;11.714;2023-08-20T12:53:25;9.30;;;6.60;;
62574;SDS011;70119;45.638;11.714;2023-08-20T12:55:51;9.10;;;6.57;;
62574;SDS011;70119;45.638;11.714;2023-08-20T12:58:17;7.80;;;6.18;;
62574;SDS011;70119;45.638;11.714;2023-08-20T13:00:42;8.82;;;6.38;;
62574;SDS011;70119;45.638;11.714;2023-08-20T13:03:08;10.25;;;6.22;;
62574;SDS011;70119;45.638;11.714;2023-08-20T13:05:35;8.23;;;6.45;;
62574;SDS011;70119;45.638;11.714;2023-08-20T13:08:01;8.52;;;6.35;;
62574;SDS011;70119;45.638;11.714;2023-08-20T13:10:27;10.70;;;5.80;;
62574;SDS011;70119;45.638;11.714;2023-08-20T13:12:54;7.30;;;5.80;;
62574;SDS011;70119;45.638;11.714;2023-08-20T13:15:23;8.32;;;6.07;;
62574;SDS011;70119;45.638;11.714;2023-08-20T13:17:50;8.05;;;6.00;;
62574;SDS011;70119;45.638;11.714;2023-08-20T13:20:16;8.35;;;5.50;;
62574;SDS011;70119;45.638;11.714;2023-08-20T13:22:50;7.88;;;5.90;;
62574;SDS011;70119;45.638;11.714;2023-08-20T13:25:17;8.70;;;6.20;;
62574;SDS011;70119;45.638;11.714;2023-08-20T13:27:43;7.72;;;5.75;;
62574;SDS011;70119;45.638;11.714;2023-08-20T13:30:09;8.30;;;6.20;;
62574;SDS011;70119;45.638;11.714;2023-08-20T13:32:36;8.07;;;6.00;;
62574;SDS011;70119;45.638;11.714;2023-08-20T13:35:02;8.25;;;6.25;;
62574;SDS011;70119;45.638;11.714;2023-08-20T13:37:32;9.32;;;6.47;;
62574;SDS011;70119;45.638;11.714;2023-08-20T13:39:58;9.23;;;6.10;;
62574;SDS011;70119;45.638;11.714;2023-08-20T13:42:25;8.85;;;6.43;;
62574;SDS011;70119;45.638;11.714;2023-08-20T13:44:51;8.52;;;6.20;;
62574;SDS011;70119;45.638;11.714;2023-08-20T13:47:17;8.10;;;6.20;;
62574;SDS011;70119;45.638;11.714;2023-08-20T13:49:43;9.45;;;6.20;;
62574;SDS011;70119;45.638;11.714;2023-08-20T13:52:09;9.02;;;6.80;;
62574;SDS011;70119;45.638;11.714;2023-08-20T13:54:35;8.40;;;6.45;;
62574;SDS011;70119;45.638;11.714;2023-08-20T13:57:04;9.27;;;6.55;;
62574;SDS011;70119;45.638;11.714;2023-08-20T13:59:30;8.45;;;6.47;;
62574;SDS011;70119;45.638;11.714;2023-08-20T14:01:57;8.93;;;6.50;;
62574;SDS011;70119;45.638;11.714;2023-08-20T14:04:24;9.70;;;6.40;;
62574;SDS011;70119;45.638;11.714;2023-08-20T14:06:50;7.95;;;6.35;;
62574;SDS011;70119;45.638;11.714;2023-08-20T14:09:16;7.90;;;6.13;;
62574;SDS011;70119;45.638;11.714;2023-08-20T14:11:45;8.77;;;6.38;;
62574;SDS011;70119;45.638;11.714;2023-08-20T14:14:11;8.40;;;6.05;;
62574;SDS011;70119;45.638;11.714;2023-08-20T14:16:37;8.15;;;6.13;;
62574;SDS011;70119;45.638;11.714;2023-08-20T14:19:03;8.35;;;6.40;;
62574;SDS011;70119;45.638;11.714;2023-08-20T14:21:29;9.60;;;6.57;;
62574;SDS011;70119;45.638;11.714;2023-08-20T14:23:55;10.20;;;6.65;;
62574;SDS011;70119;45.638;11.714;2023-08-20T14:26:21;8.52;;;6.30;;
62574;SDS011;70119;45.638;11.714;2023-08-20T14:28:50;8.80;;;6.35;;
62574;SDS011;70119;45.638;11.714;2023-08-20T14:31:16;9.20;;;6.38;;
62574;SDS011;70119;45.638;11.714;2023-08-20T14:33:45;8.35;;;6.15;;
62574;SDS011;70119;45.638;11.714;2023-08-20T14:36:14;8.45;;;6.15;;
62574;SDS011;70119;45.638;11.714;2023-08-20T14:38:42;8.77;;;6.25;;
62574;SDS011;70119;45.638;11.714;2023-08-20T14:41:08;8.23;;;5.93;;
62574;SDS011;70119;45.638;11.714;2023-08-20T14:43:35;8.75;;;6.32;;
62574;SDS011;70119;45.638;11.714;2023-08-20T14:46:01;9.23;;;6.10;;
62574;SDS011;70119;45.638;11.714;2023-08-20T14:48:28;9.35;;;6.28;;
62574;SDS011;70119;45.638;11.714;2023-08-20T14:50:54;8.07;;;6.10;;